sensor_id;sensor_type;location;lat;lon;timestamp;temperature;humidity
5960;DHT22;3006;50.956;7.002;2023-03-08T00:00:39;3.70;99.90
5960;DHT22;3006;50.956;7.002;2023-03-08T00:03:12;3.80;99.90
5960;DHT22;3006;50.956;7.002;2023-03-08T00:05:42;3.80;99.90
5960;DHT22;3006;50.956;7.002;2023-03-08T00:08:11;3.80;99.90
5960;DHT22;3006;50.956;7.002;2023-03-08T00:10:39;3.80;99.90
5960;DHT22;3006;50.956;7.002;2023-03-08T00:13:07;3.80;99.90
5960;DHT22;3006;50.956;7.002;2023-03-08T00:15:35;3.70;99.90
5960;DHT22;3006;50.956;7.002;2023-03-08T00:18:03;3.80;99.90
5960;DHT22;3006;50.956;7.002;2023-03-08T00:20:32;3.80;99.90
5960;DHT22;3006;50.956;7.002;2023-03-08T00:23:01;3.80;99.90
5960;DHT22;3006;50.956;7.002;2023-03-08T00:25:29;3.70;99.90
5960;DHT22;3006;50.956;7.002;2023-03-08T00:27:57;3.70;99.90
5960;DHT22;3006;50.956;7.002;2023-03-08T00:30:29;3.70;99.90
5960;DHT22;3006;50.956;7.002;2023-03-08T00:32:57;3.70;99.90
5960;DHT22;3006;50.956;7.002;2023-03-08T00:35:25;3.70;99.90
5960;DHT22;3006;50.956;7.002;2023-03-08T00:37:53;3.70;99.90
5960;DHT22;3006;50.956;7.002;2023-03-08T00:40:22;3.80;99.90
5960;DHT22;3006;50.956;7.002;2023-03-08T00:42:50;3.70;99.90
5960;DHT22;3006;50.956;7.002;2023-03-08T00:45:18;3.80;99.90
5960;DHT22;3006;50.956;7.002;2023-03-08T00:47:46;3.80;99.90
5960;DHT22;3006;50.956;7.002;2023-03-08T00:50:15;3.80;99.90
5960;DHT22;3006;50.956;7.002;2023-03-08T00:52:43;3.80;99.90
5960;DHT22;3006;50.956;7.002;2023-03-08T00:55:12;3.70;99.90
5960;DHT22;3006;50.956;7.002;2023-03-08T00:57:41;3.80;99.90
5960;DHT22;3006;50.956;7.002;2023-03-08T01:00:11;3.70;99.90
5960;DHT22;3006;50.956;7.002;2023-03-08T01:02:40;3.70;99.90
5960;DHT22;3006;50.956;7.002;2023-03-08T01:05:09;3.70;99.90
5960;DHT22;3006;50.956;7.002;2023-03-08T01:07:37;3.70;99.90
5960;DHT22;3006;50.956;7.002;2023-03-08T01:10:07;3.60;99.90
5960;DHT22;3006;50.956;7.002;2023-03-08T01:12:37;3.70;99.90
5960;DHT22;3006;50.956;7.002;2023-03-08T01:15:07;3.70;99.90
5960;DHT22;3006;50.956;7.002;2023-03-08T01:17:35;3.60;99.90
5960;DHT22;3006;50.956;7.002;2023-03-08T01:20:05;3.60;99.90
5960;DHT22;3006;50.956;7.002;2023-03-08T01:22:34;3.60;99.90
5960;DHT22;3006;50.956;7.002;2023-03-08T01:25:02;3.60;99.90
5960;DHT22;3006;50.956;7.002;2023-03-08T01:27:31;3.60;99.90
5960;DHT22;3006;50.956;7.002;2023-03-08T01:29:59;3.60;99.90
5960;DHT22;3006;50.956;7.002;2023-03-08T01:32:28;3.60;99.90
5960;DHT22;3006;50.956;7.002;2023-03-08T01:34:57;3.50;99.90
5960;DHT22;3006;50.956;7.002;2023-03-08T01:37:30;3.50;99.90
5960;DHT22;3006;50.956;7.002;2023-03-08T01:39:58;3.50;99.90
5960;DHT22;3006;50.956;7.002;2023-03-08T01:42:27;3.50;99.90
5960;DHT22;3006;50.956;7.002;2023-03-08T01:44:57;3.50;99.90
5960;DHT22;3006;50.956;7.002;2023-03-08T01:47:30;3.50;99.90
5960;DHT22;3006;50.956;7.002;2023-03-08T01:50:15;3.60;99.90
5960;DHT22;3006;50.956;7.002;2023-03-08T01:52:47;3.60;99.90
5960;DHT22;3006;50.956;7.002;2023-03-08T01:55:18;3.50;99.90
5960;DHT22;3006;50.956;7.002;2023-03-08T01:57:48;3.50;99.90
5960;DHT22;3006;50.956;7.002;2023-03-08T02:00:20;3.60;99.90
5960;DHT22;3006;50.956;7.002;2023-03-08T02:02:54;3.60;99.90
5960;DHT22;3006;50.956;7.002;2023-03-08T02:05:24;3.60;99.90
5960;DHT22;3006;50.956;7.002;2023-03-08T02:07:58;3.60;99.90
5960;DHT22;3006;50.956;7.002;2023-03-08T02:10:31;3.60;99.90
5960;DHT22;3006;50.956;7.002;2023-03-08T02:12:59;3.50;99.90
5960;DHT22;3006;50.956;7.002;2023-03-08T02:15:27;3.50;99.90
5960;DHT22;3006;50.956;7.002;2023-03-08T02:17:58;3.50;99.90
5960;DHT22;3006;50.956;7.002;2023-03-08T02:20:28;3.50;99.90
5960;DHT22;3006;50.956;7.002;2023-03-08T02:23:08;3.50;99.90
5960;DHT22;3006;50.956;7.002;2023-03-08T02:25:36;3.50;99.90
5960;DHT22;3006;50.956;7.002;2023-03-08T02:28:07;3.50;99.90
5960;DHT22;3006;50.956;7.002;2023-03-08T02:30:36;3.50;99.90
5960;DHT22;3006;50.956;7.002;2023-03-08T02:33:04;3.50;99.90
5960;DHT22;3006;50.956;7.002;2023-03-08T02:35:34;3.40;99.90
5960;DHT22;3006;50.956;7.002;2023-03-08T02:38:03;3.40;99.90
5960;DHT22;3006;50.956;7.002;2023-03-08T02:40:33;3.40;99.90
5960;DHT22;3006;50.956;7.002;2023-03-08T02:43:01;3.40;99.90
5960;DHT22;3006;50.956;7.002;2023-03-08T02:45:29;3.40;99.90
5960;DHT22;3006;50.956;7.002;2023-03-08T02:47:57;3.40;99.90
5960;DHT22;3006;50.956;7.002;2023-03-08T02:50:25;3.40;99.90
5960;DHT22;3006;50.956;7.002;2023-03-08T02:52:53;3.30;99.90
5960;DHT22;3006;50.956;7.002;2023-03-08T02:55:21;3.40;99.90
5960;DHT22;3006;50.956;7.002;2023-03-08T02:57:51;3.40;99.90
5960;DHT22;3006;50.956;7.002;2023-03-08T03:00:19;3.40;99.90
5960;DHT22;3006;50.956;7.002;2023-03-08T03:02:48;3.40;99.90
5960;DHT22;3006;50.956;7.002;2023-03-08T03:05:19;3.40;99.90
5960;DHT22;3006;50.956;7.002;2023-03-08T03:07:47;3.40;99.90
5960;DHT22;3006;50.956;7.002;2023-03-08T03:10:18;3.50;99.90
5960;DHT22;3006;50.956;7.002;2023-03-08T03:12:46;3.50;99.90
5960;DHT22;3006;50.956;7.002;2023-03-08T03:15:19;3.40;99.90
5960;DHT22;3006;50.956;7.002;2023-03-08T03:17:52;3.40;99.90
5960;DHT22;3006;50.956;7.002;2023-03-08T03:20:20;3.40;99.90
5960;DHT22;3006;50.956;7.002;2023-03-08T03:22:48;3.40;99.90
5960;DHT22;3006;50.956;7.002;2023-03-08T03:25:19;3.30;99.90
5960;DHT22;3006;50.956;7.002;2023-03-08T03:27:48;3.40;99.90
5960;DHT22;3006;50.956;7.002;2023-03-08T03:30:19;3.30;99.90
5960;DHT22;3006;50.956;7.002;2023-03-08T03:32:47;3.30;99.90
5960;DHT22;3006;50.956;7.002;2023-03-08T03:35:20;3.30;99.90
5960;DHT22;3006;50.956;7.002;2023-03-08T03:37:49;3.30;99.90
5960;DHT22;3006;50.956;7.002;2023-03-08T03:40:17;3.30;99.90
5960;DHT22;3006;50.956;7.002;2023-03-08T03:42:48;3.30;99.90
5960;DHT22;3006;50.956;7.002;2023-03-08T03:45:18;3.20;99.90
5960;DHT22;3006;50.956;7.002;2023-03-08T03:47:47;3.30;99.90
5960;DHT22;3006;50.956;7.002;2023-03-08T03:50:16;3.20;99.90
5960;DHT22;3006;50.956;7.002;2023-03-08T03:52:58;3.20;99.90
5960;DHT22;3006;50.956;7.002;2023-03-08T03:55:27;3.20;99.90
5960;DHT22;3006;50.956;7.002;2023-03-08T03:57:56;3.30;99.90
5960;DHT22;3006;50.956;7.002;2023-03-08T04:00:25;3.30;99.90
5960;DHT22;3006;50.956;7.002;2023-03-08T04:03:05;3.20;99.90
5960;DHT22;3006;50.956;7.002;2023-03-08T04:05:36;3.20;99.90
5960;DHT22;3006;50.956;7.002;2023-03-08T04:08:06;3.20;99.90
5960;DHT22;3006;50.956;7.002;2023-03-08T04:10:38;3.20;99.90
5960;DHT22;3006;50.956;7.002;2023-03-08T04:13:09;3.20;99.90
5960;DHT22;3006;50.956;7.002;2023-03-08T04:15:40;3.20;99.90
5960;DHT22;3006;50.956;7.002;2023-03-08T04:18:11;3.20;99.90
5960;DHT22;3006;50.956;7.002;2023-03-08T04:20:43;3.20;99.90
5960;DHT22;3006;50.956;7.002;2023-03-08T04:23:13;3.20;99.90
5960;DHT22;3006;50.956;7.002;2023-03-08T04:25:45;3.20;99.90
5960;DHT22;3006;50.956;7.002;2023-03-08T04:28:14;3.20;99.90
5960;DHT22;3006;50.956;7.002;2023-03-08T04:30:44;3.20;99.90
5960;DHT22;3006;50.956;7.002;2023-03-08T04:33:14;3.20;99.90
5960;DHT22;3006;50.956;7.002;2023-03-08T04:35:48;3.20;99.90
5960;DHT22;3006;50.956;7.002;2023-03-08T04:38:19;3.20;99.90
5960;DHT22;3006;50.956;7.002;2023-03-08T04:40:51;3.20;99.90
5960;DHT22;3006;50.956;7.002;2023-03-08T04:43:55;3.20;99.90
5960;DHT22;3006;50.956;7.002;2023-03-08T04:46:35;3.20;99.90
5960;DHT22;3006;50.956;7.002;2023-03-08T04:49:03;3.20;99.90
5960;DHT22;3006;50.956;7.002;2023-03-08T04:51:38;3.20;99.90
5960;DHT22;3006;50.956;7.002;2023-03-08T04:54:08;3.10;99.90
5960;DHT22;3006;50.956;7.002;2023-03-08T04:56:41;3.10;99.90
5960;DHT22;3006;50.956;7.002;2023-03-08T04:59:12;3.00;99.90
5960;DHT22;3006;50.956;7.002;2023-03-08T05:01:41;3.00;99.90
5960;DHT22;3006;50.956;7.002;2023-03-08T05:04:11;3.10;99.90
5960;DHT22;3006;50.956;7.002;2023-03-08T05:06:40;3.10;99.90
5960;DHT22;3006;50.956;7.002;2023-03-08T05:09:12;3.10;99.90
5960;DHT22;3006;50.956;7.002;2023-03-08T05:11:43;3.10;99.90
5960;DHT22;3006;50.956;7.002;2023-03-08T05:14:14;3.00;99.90
5960;DHT22;3006;50.956;7.002;2023-03-08T05:16:43;3.00;99.90
5960;DHT22;3006;50.956;7.002;2023-03-08T05:19:12;3.10;99.90
5960;DHT22;3006;50.956;7.002;2023-03-08T05:21:48;3.00;99.90
5960;DHT22;3006;50.956;7.002;2023-03-08T05:24:16;3.00;99.90
5960;DHT22;3006;50.956;7.002;2023-03-08T05:26:44;3.10;99.90
5960;DHT22;3006;50.956;7.002;2023-03-08T05:29:15;3.10;99.90
5960;DHT22;3006;50.956;7.002;2023-03-08T05:31:45;3.10;99.90
5960;DHT22;3006;50.956;7.002;2023-03-08T05:34:14;3.10;99.90
5960;DHT22;3006;50.956;7.002;2023-03-08T05:36:46;3.00;99.90
5960;DHT22;3006;50.956;7.002;2023-03-08T05:39:15;3.00;99.90
5960;DHT22;3006;50.956;7.002;2023-03-08T05:41:53;3.00;99.90
5960;DHT22;3006;50.956;7.002;2023-03-08T05:44:28;3.10;99.90
5960;DHT22;3006;50.956;7.002;2023-03-08T05:46:59;3.00;99.90
5960;DHT22;3006;50.956;7.002;2023-03-08T05:49:29;3.00;99.90
5960;DHT22;3006;50.956;7.002;2023-03-08T05:51:58;2.90;99.90
5960;DHT22;3006;50.956;7.002;2023-03-08T05:54:27;2.90;99.90
5960;DHT22;3006;50.956;7.002;2023-03-08T05:57:00;3.00;99.90
5960;DHT22;3006;50.956;7.002;2023-03-08T05:59:30;3.00;99.90
5960;DHT22;3006;50.956;7.002;2023-03-08T06:02:03;3.00;99.90
5960;DHT22;3006;50.956;7.002;2023-03-08T06:04:39;3.00;99.90
5960;DHT22;3006;50.956;7.002;2023-03-08T06:07:09;2.90;99.90
5960;DHT22;3006;50.956;7.002;2023-03-08T06:09:41;2.90;99.90
5960;DHT22;3006;50.956;7.002;2023-03-08T06:12:13;2.90;99.90
5960;DHT22;3006;50.956;7.002;2023-03-08T06:14:43;3.00;99.90
5960;DHT22;3006;50.956;7.002;2023-03-08T06:17:15;3.00;99.90
5960;DHT22;3006;50.956;7.002;2023-03-08T06:19:46;3.00;99.90
5960;DHT22;3006;50.956;7.002;2023-03-08T06:22:15;2.90;99.90
5960;DHT22;3006;50.956;7.002;2023-03-08T06:24:44;2.90;99.90
5960;DHT22;3006;50.956;7.002;2023-03-08T06:27:18;2.90;99.90
5960;DHT22;3006;50.956;7.002;2023-03-08T06:29:49;2.90;99.90
5960;DHT22;3006;50.956;7.002;2023-03-08T06:32:20;2.90;99.90
5960;DHT22;3006;50.956;7.002;2023-03-08T06:34:49;2.80;99.90
5960;DHT22;3006;50.956;7.002;2023-03-08T06:37:18;2.90;99.90
5960;DHT22;3006;50.956;7.002;2023-03-08T06:39:46;2.90;99.90
5960;DHT22;3006;50.956;7.002;2023-03-08T06:42:14;2.90;99.90
5960;DHT22;3006;50.956;7.002;2023-03-08T06:44:43;3.00;99.90
5960;DHT22;3006;50.956;7.002;2023-03-08T06:47:11;3.00;99.90
5960;DHT22;3006;50.956;7.002;2023-03-08T06:49:41;3.00;99.90
5960;DHT22;3006;50.956;7.002;2023-03-08T06:52:11;3.00;99.90
5960;DHT22;3006;50.956;7.002;2023-03-08T06:54:39;3.00;99.90
5960;DHT22;3006;50.956;7.002;2023-03-08T06:57:07;3.00;99.90
5960;DHT22;3006;50.956;7.002;2023-03-08T06:59:35;3.20;99.90
5960;DHT22;3006;50.956;7.002;2023-03-08T07:02:03;3.50;99.90
5960;DHT22;3006;50.956;7.002;2023-03-08T07:04:32;3.70;99.90
5960;DHT22;3006;50.956;7.002;2023-03-08T07:07:02;3.70;99.90
5960;DHT22;3006;50.956;7.002;2023-03-08T07:09:30;3.70;99.90
5960;DHT22;3006;50.956;7.002;2023-03-08T07:11:58;3.70;99.90
5960;DHT22;3006;50.956;7.002;2023-03-08T07:14:26;3.70;99.90
5960;DHT22;3006;50.956;7.002;2023-03-08T07:16:54;3.70;99.90
5960;DHT22;3006;50.956;7.002;2023-03-08T07:19:22;3.80;99.90
5960;DHT22;3006;50.956;7.002;2023-03-08T07:21:50;3.80;99.90
5960;DHT22;3006;50.956;7.002;2023-03-08T07:24:20;3.80;99.90
5960;DHT22;3006;50.956;7.002;2023-03-08T07:26:49;3.80;99.90
5960;DHT22;3006;50.956;7.002;2023-03-08T07:29:17;3.80;99.90
5960;DHT22;3006;50.956;7.002;2023-03-08T07:31:45;3.80;99.90
5960;DHT22;3006;50.956;7.002;2023-03-08T07:34:13;3.80;99.90
5960;DHT22;3006;50.956;7.002;2023-03-08T07:36:41;3.70;99.90
5960;DHT22;3006;50.956;7.002;2023-03-08T07:39:09;3.70;99.90
5960;DHT22;3006;50.956;7.002;2023-03-08T07:41:39;3.60;99.90
5960;DHT22;3006;50.956;7.002;2023-03-08T07:44:07;3.60;99.90
5960;DHT22;3006;50.956;7.002;2023-03-08T07:46:35;3.50;99.90
5960;DHT22;3006;50.956;7.002;2023-03-08T07:49:03;3.40;99.90
5960;DHT22;3006;50.956;7.002;2023-03-08T07:51:36;3.40;99.90
5960;DHT22;3006;50.956;7.002;2023-03-08T07:54:04;3.40;99.90
5960;DHT22;3006;50.956;7.002;2023-03-08T07:56:33;3.40;99.90
5960;DHT22;3006;50.956;7.002;2023-03-08T07:59:02;3.30;99.90
5960;DHT22;3006;50.956;7.002;2023-03-08T08:01:30;3.30;99.90
5960;DHT22;3006;50.956;7.002;2023-03-08T08:03:59;3.40;99.90
5960;DHT22;3006;50.956;7.002;2023-03-08T08:06:27;3.40;99.90
5960;DHT22;3006;50.956;7.002;2023-03-08T08:08:56;3.40;99.90
5960;DHT22;3006;50.956;7.002;2023-03-08T08:11:24;3.40;99.90
5960;DHT22;3006;50.956;7.002;2023-03-08T08:13:52;3.50;99.90
5960;DHT22;3006;50.956;7.002;2023-03-08T08:16:21;3.50;99.90
5960;DHT22;3006;50.956;7.002;2023-03-08T08:18:50;3.50;99.90
5960;DHT22;3006;50.956;7.002;2023-03-08T08:21:19;3.50;99.90
5960;DHT22;3006;50.956;7.002;2023-03-08T08:23:47;3.50;99.90
5960;DHT22;3006;50.956;7.002;2023-03-08T08:26:17;3.40;99.90
5960;DHT22;3006;50.956;7.002;2023-03-08T08:28:47;3.40;99.90
5960;DHT22;3006;50.956;7.002;2023-03-08T08:31:18;3.50;99.90
5960;DHT22;3006;50.956;7.002;2023-03-08T08:33:47;3.50;99.90
5960;DHT22;3006;50.956;7.002;2023-03-08T08:36:18;3.50;99.90
5960;DHT22;3006;50.956;7.002;2023-03-08T08:38:47;3.50;99.90
5960;DHT22;3006;50.956;7.002;2023-03-08T08:41:16;3.60;99.90
5960;DHT22;3006;50.956;7.002;2023-03-08T08:43:45;3.60;99.90
5960;DHT22;3006;50.956;7.002;2023-03-08T08:46:14;3.70;99.90
5960;DHT22;3006;50.956;7.002;2023-03-08T08:48:42;3.70;99.90
5960;DHT22;3006;50.956;7.002;2023-03-08T08:51:12;3.70;99.90
5960;DHT22;3006;50.956;7.002;2023-03-08T08:53:41;3.80;99.90
5960;DHT22;3006;50.956;7.002;2023-03-08T08:56:11;3.80;99.90
5960;DHT22;3006;50.956;7.002;2023-03-08T08:58:53;3.90;99.90
5960;DHT22;3006;50.956;7.002;2023-03-08T09:01:23;3.90;99.90
5960;DHT22;3006;50.956;7.002;2023-03-08T09:03:51;3.90;99.90
5960;DHT22;3006;50.956;7.002;2023-03-08T09:06:22;4.00;99.90
5960;DHT22;3006;50.956;7.002;2023-03-08T09:08:50;4.10;99.90
5960;DHT22;3006;50.956;7.002;2023-03-08T09:11:19;4.20;99.90
5960;DHT22;3006;50.956;7.002;2023-03-08T09:13:47;4.20;99.90
5960;DHT22;3006;50.956;7.002;2023-03-08T09:16:17;4.30;99.90
5960;DHT22;3006;50.956;7.002;2023-03-08T09:18:46;4.30;99.90
5960;DHT22;3006;50.956;7.002;2023-03-08T09:21:17;4.30;99.90
5960;DHT22;3006;50.956;7.002;2023-03-08T09:23:47;4.30;99.90
5960;DHT22;3006;50.956;7.002;2023-03-08T09:26:15;4.30;99.90
5960;DHT22;3006;50.956;7.002;2023-03-08T09:28:43;4.40;99.90
5960;DHT22;3006;50.956;7.002;2023-03-08T09:31:14;4.40;99.90
5960;DHT22;3006;50.956;7.002;2023-03-08T09:33:45;4.30;99.90
5960;DHT22;3006;50.956;7.002;2023-03-08T09:36:14;4.40;99.90
5960;DHT22;3006;50.956;7.002;2023-03-08T09:38:42;4.40;99.90
5960;DHT22;3006;50.956;7.002;2023-03-08T09:41:31;4.40;99.90
5960;DHT22;3006;50.956;7.002;2023-03-08T09:44:12;4.40;99.90
5960;DHT22;3006;50.956;7.002;2023-03-08T09:46:46;4.40;99.90
5960;DHT22;3006;50.956;7.002;2023-03-08T09:49:18;4.50;99.90
5960;DHT22;3006;50.956;7.002;2023-03-08T09:51:55;4.40;99.90
5960;DHT22;3006;50.956;7.002;2023-03-08T09:54:27;4.50;99.90
5960;DHT22;3006;50.956;7.002;2023-03-08T09:56:56;4.50;99.90
5960;DHT22;3006;50.956;7.002;2023-03-08T09:59:29;4.60;99.90
5960;DHT22;3006;50.956;7.002;2023-03-08T10:02:03;4.60;99.90
5960;DHT22;3006;50.956;7.002;2023-03-08T10:04:45;4.50;99.90
5960;DHT22;3006;50.956;7.002;2023-03-08T10:07:47;4.50;99.90
5960;DHT22;3006;50.956;7.002;2023-03-08T10:10:27;4.40;99.90
5960;DHT22;3006;50.956;7.002;2023-03-08T10:13:07;4.40;99.90
5960;DHT22;3006;50.956;7.002;2023-03-08T10:15:40;4.30;99.90
5960;DHT22;3006;50.956;7.002;2023-03-08T10:18:15;4.30;99.90
5960;DHT22;3006;50.956;7.002;2023-03-08T10:20:45;4.20;99.90
5960;DHT22;3006;50.956;7.002;2023-03-08T10:23:15;4.30;99.90
5960;DHT22;3006;50.956;7.002;2023-03-08T10:25:44;4.30;99.90
5960;DHT22;3006;50.956;7.002;2023-03-08T10:28:16;4.30;99.90
5960;DHT22;3006;50.956;7.002;2023-03-08T10:30:46;4.30;99.90
5960;DHT22;3006;50.956;7.002;2023-03-08T10:33:16;4.30;99.90
5960;DHT22;3006;50.956;7.002;2023-03-08T10:35:57;4.30;99.90
5960;DHT22;3006;50.956;7.002;2023-03-08T10:38:27;4.40;99.90
5960;DHT22;3006;50.956;7.002;2023-03-08T10:41:00;4.50;99.90
5960;DHT22;3006;50.956;7.002;2023-03-08T10:43:32;4.70;99.90
5960;DHT22;3006;50.956;7.002;2023-03-08T10:46:04;4.70;99.90
5960;DHT22;3006;50.956;7.002;2023-03-08T10:48:32;4.70;99.90
5960;DHT22;3006;50.956;7.002;2023-03-08T10:51:02;4.80;99.90
5960;DHT22;3006;50.956;7.002;2023-03-08T10:53:31;4.80;99.90
5960;DHT22;3006;50.956;7.002;2023-03-08T10:56:00;4.90;99.90
5960;DHT22;3006;50.956;7.002;2023-03-08T10:58:33;4.90;99.90
5960;DHT22;3006;50.956;7.002;2023-03-08T11:01:04;4.90;99.90
5960;DHT22;3006;50.956;7.002;2023-03-08T11:03:33;5.00;99.90
5960;DHT22;3006;50.956;7.002;2023-03-08T11:06:03;5.00;99.90
5960;DHT22;3006;50.956;7.002;2023-03-08T11:08:33;5.00;99.90
5960;DHT22;3006;50.956;7.002;2023-03-08T11:11:08;5.00;99.90
5960;DHT22;3006;50.956;7.002;2023-03-08T11:13:39;5.10;99.90
5960;DHT22;3006;50.956;7.002;2023-03-08T11:16:23;5.10;99.90
5960;DHT22;3006;50.956;7.002;2023-03-08T11:19:02;5.10;99.90
5960;DHT22;3006;50.956;7.002;2023-03-08T11:21:41;5.30;99.90
5960;DHT22;3006;50.956;7.002;2023-03-08T11:24:21;5.30;99.90
5960;DHT22;3006;50.956;7.002;2023-03-08T11:29:54;5.40;99.90
5960;DHT22;3006;50.956;7.002;2023-03-08T11:32:40;5.40;99.90
5960;DHT22;3006;50.956;7.002;2023-03-08T11:35:19;5.30;99.90
5960;DHT22;3006;50.956;7.002;2023-03-08T11:37:55;5.30;99.90
5960;DHT22;3006;50.956;7.002;2023-03-08T11:40:30;5.30;99.90
5960;DHT22;3006;50.956;7.002;2023-03-08T11:43:12;5.40;99.90
5960;DHT22;3006;50.956;7.002;2023-03-08T11:45:48;5.40;99.90
5960;DHT22;3006;50.956;7.002;2023-03-08T11:48:58;5.40;99.90
5960;DHT22;3006;50.956;7.002;2023-03-08T11:51:32;5.50;99.90
5960;DHT22;3006;50.956;7.002;2023-03-08T11:54:11;5.50;99.90
5960;DHT22;3006;50.956;7.002;2023-03-08T11:56:46;5.50;99.90
5960;DHT22;3006;50.956;7.002;2023-03-08T11:59:22;5.60;99.90
5960;DHT22;3006;50.956;7.002;2023-03-08T12:01:57;5.60;99.90
5960;DHT22;3006;50.956;7.002;2023-03-08T12:04:31;5.60;99.90
5960;DHT22;3006;50.956;7.002;2023-03-08T12:07:07;5.60;99.90
5960;DHT22;3006;50.956;7.002;2023-03-08T12:09:41;5.60;99.90
5960;DHT22;3006;50.956;7.002;2023-03-08T12:12:17;5.70;99.90
5960;DHT22;3006;50.956;7.002;2023-03-08T12:14:51;5.80;99.90
5960;DHT22;3006;50.956;7.002;2023-03-08T12:17:26;5.80;99.90
5960;DHT22;3006;50.956;7.002;2023-03-08T12:19:55;5.80;99.90
5960;DHT22;3006;50.956;7.002;2023-03-08T12:22:29;5.70;99.90
5960;DHT22;3006;50.956;7.002;2023-03-08T12:25:06;5.80;99.90
5960;DHT22;3006;50.956;7.002;2023-03-08T12:27:40;5.80;99.90
5960;DHT22;3006;50.956;7.002;2023-03-08T12:30:18;6.00;99.90
5960;DHT22;3006;50.956;7.002;2023-03-08T12:32:49;6.00;99.90
5960;DHT22;3006;50.956;7.002;2023-03-08T12:35:29;6.10;99.90
5960;DHT22;3006;50.956;7.002;2023-03-08T12:37:59;6.10;99.90
5960;DHT22;3006;50.956;7.002;2023-03-08T12:40:40;6.10;99.90
5960;DHT22;3006;50.956;7.002;2023-03-08T12:43:10;6.10;99.90
5960;DHT22;3006;50.956;7.002;2023-03-08T12:45:39;6.10;99.90
5960;DHT22;3006;50.956;7.002;2023-03-08T12:48:16;6.10;99.90
5960;DHT22;3006;50.956;7.002;2023-03-08T12:50:56;6.20;99.90
5960;DHT22;3006;50.956;7.002;2023-03-08T12:53:33;6.20;99.90
5960;DHT22;3006;50.956;7.002;2023-03-08T12:56:05;6.30;99.90
5960;DHT22;3006;50.956;7.002;2023-03-08T12:58:37;6.30;99.90
5960;DHT22;3006;50.956;7.002;2023-03-08T13:01:22;6.40;99.90
5960;DHT22;3006;50.956;7.002;2023-03-08T13:03:52;6.50;99.90
5960;DHT22;3006;50.956;7.002;2023-03-08T13:09:46;6.40;99.90
5960;DHT22;3006;50.956;7.002;2023-03-08T13:15:21;6.40;99.90
5960;DHT22;3006;50.956;7.002;2023-03-08T13:17:55;6.40;99.90
5960;DHT22;3006;50.956;7.002;2023-03-08T13:20:30;6.40;99.90
5960;DHT22;3006;50.956;7.002;2023-03-08T13:23:04;6.30;99.90
5960;DHT22;3006;50.956;7.002;2023-03-08T13:25:46;6.20;99.90
5960;DHT22;3006;50.956;7.002;2023-03-08T13:28:19;6.20;99.90
5960;DHT22;3006;50.956;7.002;2023-03-08T13:30:50;6.30;99.90
5960;DHT22;3006;50.956;7.002;2023-03-08T13:33:21;6.20;99.90
5960;DHT22;3006;50.956;7.002;2023-03-08T13:36:01;6.20;99.90
5960;DHT22;3006;50.956;7.002;2023-03-08T13:38:32;6.40;99.90
5960;DHT22;3006;50.956;7.002;2023-03-08T13:41:01;6.40;99.90
5960;DHT22;3006;50.956;7.002;2023-03-08T13:43:31;6.40;99.90
5960;DHT22;3006;50.956;7.002;2023-03-08T13:46:02;6.50;99.90
5960;DHT22;3006;50.956;7.002;2023-03-08T13:48:32;6.50;99.90
5960;DHT22;3006;50.956;7.002;2023-03-08T13:51:02;6.40;99.90
5960;DHT22;3006;50.956;7.002;2023-03-08T13:53:31;6.50;99.90
5960;DHT22;3006;50.956;7.002;2023-03-08T13:56:03;6.60;99.90
5960;DHT22;3006;50.956;7.002;2023-03-08T13:58:34;6.60;99.90
5960;DHT22;3006;50.956;7.002;2023-03-08T14:01:09;6.50;99.90
5960;DHT22;3006;50.956;7.002;2023-03-08T14:03:39;6.50;99.90
5960;DHT22;3006;50.956;7.002;2023-03-08T14:06:16;6.50;99.90
5960;DHT22;3006;50.956;7.002;2023-03-08T14:08:46;6.50;99.90
5960;DHT22;3006;50.956;7.002;2023-03-08T14:11:16;6.50;99.90
5960;DHT22;3006;50.956;7.002;2023-03-08T14:13:48;6.50;99.90
5960;DHT22;3006;50.956;7.002;2023-03-08T14:16:29;6.40;99.90
5960;DHT22;3006;50.956;7.002;2023-03-08T14:18:59;6.40;99.90
5960;DHT22;3006;50.956;7.002;2023-03-08T14:21:29;6.50;99.90
5960;DHT22;3006;50.956;7.002;2023-03-08T14:23:59;6.50;99.90
5960;DHT22;3006;50.956;7.002;2023-03-08T14:26:30;6.50;99.90
5960;DHT22;3006;50.956;7.002;2023-03-08T14:29:16;6.60;99.90
5960;DHT22;3006;50.956;7.002;2023-03-08T14:32:03;6.50;99.90
5960;DHT22;3006;50.956;7.002;2023-03-08T14:34:33;6.50;99.90
5960;DHT22;3006;50.956;7.002;2023-03-08T14:37:06;6.50;99.90
5960;DHT22;3006;50.956;7.002;2023-03-08T14:39:44;6.80;99.90
5960;DHT22;3006;50.956;7.002;2023-03-08T14:42:17;6.60;99.90
5960;DHT22;3006;50.956;7.002;2023-03-08T14:44:52;6.50;99.90
5960;DHT22;3006;50.956;7.002;2023-03-08T14:47:22;6.40;99.90
5960;DHT22;3006;50.956;7.002;2023-03-08T14:49:54;6.30;99.90
5960;DHT22;3006;50.956;7.002;2023-03-08T14:52:26;6.30;99.90
5960;DHT22;3006;50.956;7.002;2023-03-08T14:54:54;6.30;99.90
5960;DHT22;3006;50.956;7.002;2023-03-08T14:57:24;6.30;99.90
5960;DHT22;3006;50.956;7.002;2023-03-08T14:59:56;6.30;99.90
5960;DHT22;3006;50.956;7.002;2023-03-08T15:02:33;6.30;99.90
5960;DHT22;3006;50.956;7.002;2023-03-08T15:05:02;6.30;99.90
5960;DHT22;3006;50.956;7.002;2023-03-08T15:07:35;6.30;99.90
5960;DHT22;3006;50.956;7.002;2023-03-08T15:10:05;6.30;99.90
5960;DHT22;3006;50.956;7.002;2023-03-08T15:12:34;6.20;99.90
5960;DHT22;3006;50.956;7.002;2023-03-08T15:15:10;6.20;99.90
5960;DHT22;3006;50.956;7.002;2023-03-08T15:17:38;6.20;99.90
5960;DHT22;3006;50.956;7.002;2023-03-08T15:20:09;6.20;99.90
5960;DHT22;3006;50.956;7.002;2023-03-08T15:22:42;6.20;99.90
5960;DHT22;3006;50.956;7.002;2023-03-08T15:25:15;6.20;99.90
5960;DHT22;3006;50.956;7.002;2023-03-08T15:27:45;6.10;99.90
5960;DHT22;3006;50.956;7.002;2023-03-08T15:30:17;6.10;99.90
5960;DHT22;3006;50.956;7.002;2023-03-08T15:32:45;6.10;99.90
5960;DHT22;3006;50.956;7.002;2023-03-08T15:35:14;6.10;99.90
5960;DHT22;3006;50.956;7.002;2023-03-08T15:37:44;6.10;99.90
5960;DHT22;3006;50.956;7.002;2023-03-08T15:40:13;6.10;99.90
5960;DHT22;3006;50.956;7.002;2023-03-08T15:42:42;6.20;99.90
5960;DHT22;3006;50.956;7.002;2023-03-08T15:45:11;6.10;99.90
5960;DHT22;3006;50.956;7.002;2023-03-08T15:47:40;6.10;99.90
5960;DHT22;3006;50.956;7.002;2023-03-08T15:50:13;6.10;99.90
5960;DHT22;3006;50.956;7.002;2023-03-08T15:52:41;6.10;99.90
5960;DHT22;3006;50.956;7.002;2023-03-08T15:55:12;6.20;99.90
5960;DHT22;3006;50.956;7.002;2023-03-08T15:57:41;6.20;99.90
5960;DHT22;3006;50.956;7.002;2023-03-08T16:00:11;6.10;99.90
5960;DHT22;3006;50.956;7.002;2023-03-08T16:02:41;6.10;99.90
5960;DHT22;3006;50.956;7.002;2023-03-08T16:05:10;6.10;99.90
5960;DHT22;3006;50.956;7.002;2023-03-08T16:07:39;6.10;99.90
5960;DHT22;3006;50.956;7.002;2023-03-08T16:10:09;6.00;99.90
5960;DHT22;3006;50.956;7.002;2023-03-08T16:12:40;6.10;99.90
5960;DHT22;3006;50.956;7.002;2023-03-08T16:15:09;6.00;99.90
5960;DHT22;3006;50.956;7.002;2023-03-08T16:17:37;6.00;99.90
5960;DHT22;3006;50.956;7.002;2023-03-08T16:20:06;6.10;99.90
5960;DHT22;3006;50.956;7.002;2023-03-08T16:22:34;6.10;99.90
5960;DHT22;3006;50.956;7.002;2023-03-08T16:25:03;6.10;99.90
5960;DHT22;3006;50.956;7.002;2023-03-08T16:27:31;6.10;99.90
5960;DHT22;3006;50.956;7.002;2023-03-08T16:30:03;6.10;99.90
5960;DHT22;3006;50.956;7.002;2023-03-08T16:32:32;6.10;99.90
5960;DHT22;3006;50.956;7.002;2023-03-08T16:35:00;6.10;99.90
5960;DHT22;3006;50.956;7.002;2023-03-08T16:37:28;6.10;99.90
5960;DHT22;3006;50.956;7.002;2023-03-08T16:39:56;6.10;99.90
5960;DHT22;3006;50.956;7.002;2023-03-08T16:42:28;6.10;99.90
5960;DHT22;3006;50.956;7.002;2023-03-08T16:44:56;6.10;99.90
5960;DHT22;3006;50.956;7.002;2023-03-08T16:47:27;6.10;99.90
5960;DHT22;3006;50.956;7.002;2023-03-08T16:49:58;6.10;99.90
5960;DHT22;3006;50.956;7.002;2023-03-08T16:52:27;6.00;99.90